Time;durP1;ratioP1;P1;durP2;ratioP2;P2;SDS_P1;SDS_P2;PMS_P1;PMS_P2;Temp;Humidity;BMP_temperature;BMP_pressure;BME280_temperature;BME280_humidity;BME280_pressure;Samples;Min_cycle;Max_cycle;Signal;HPM_P1;HPM_P2
2023/09/16 00:01:21;;;;;;;5.63;2.40;;;;;;;;;;10351159;22;20360;-71
2023/09/16 00:05:22;;;;;;;3.15;2.47;;;;;;;;;;10377367;22;20249;-71
2023/09/16 00:09:23;;;;;;;4.80;2.78;;;;;;;;;;10375231;22;20092;-71
2023/09/16 00:13:23;;;;;;;2.42;2.22;;;;;;;;;;10370832;22;19995;-71
2023/09/16 00:17:23;;;;;;;2.97;2.55;;;;;;;;;;10371847;22;20018;-71
2023/09/16 00:21:24;;;;;;;3.28;2.22;;;;;;;;;;10369907;22;20014;-71
2023/09/16 00:25:24;;;;;;;3.33;2.05;;;;;;;;;;10369651;22;20230;-71
2023/09/16 00:29:25;;;;;;;2.25;2.15;;;;;;;;;;10373995;22;20626;-71
2023/09/16 00:33:25;;;;;;;2.45;2.25;;;;;;;;;;10367811;22;20026;-71
2023/09/16 00:37:25;;;;;;;2.87;2.57;;;;;;;;;;10376451;22;20021;-71
2023/09/16 00:41:25;;;;;;;2.42;2.25;;;;;;;;;;10368792;22;20081;-71
2023/09/16 00:45:26;;;;;;;2.53;2.33;;;;;;;;;;10368959;22;20731;-71
2023/09/16 00:49:28;;;;;;;3.10;2.50;;;;;;;;;;10370171;22;20627;-71
2023/09/16 00:53:29;;;;;;;3.20;2.20;;;;;;;;;;10369106;22;20867;-70
2023/09/16 00:57:30;;;;;;;2.88;2.60;;;;;;;;;;10370237;22;20121;-71
2023/09/16 01:01:30;;;;;;;2.30;2.20;;;;;;;;;;10368456;22;20069;-70
2023/09/16 01:05:31;;;;;;;2.33;2.13;;;;;;;;;;10370821;22;20796;-71
2023/09/16 01:09:31;;;;;;;2.95;2.65;;;;;;;;;;10370458;22;20002;-70
2023/09/16 01:13:33;;;;;;;3.03;2.72;;;;;;;;;;10372164;22;20432;-71
2023/09/16 01:17:34;;;;;;;2.90;2.70;;;;;;;;;;10369533;22;20118;-71
2023/09/16 01:21:35;;;;;;;2.90;2.67;;;;;;;;;;10373849;22;19999;-71
2023/09/16 01:25:35;;;;;;;2.70;2.50;;;;;;;;;;10370016;22;20088;-70
2023/09/16 01:29:36;;;;;;;2.63;2.42;;;;;;;;;;10371342;22;20703;-70
2023/09/16 01:33:45;;;;;;;2.97;2.53;;;;;;;;;;10369281;22;20352;-70
2023/09/16 01:37:46;;;;;;;3.15;2.35;;;;;;;;;;10377177;22;20336;-71
2023/09/16 01:41:47;;;;;;;2.58;2.38;;;;;;;;;;10378302;22;20037;-71
2023/09/16 01:45:47;;;;;;;4.10;2.67;;;;;;;;;;10386260;22;20073;-71
2023/09/16 01:49:48;;;;;;;2.70;2.50;;;;;;;;;;10383063;22;20023;-70
2023/09/16 01:53:48;;;;;;;2.90;2.60;;;;;;;;;;10383064;22;20014;-70
2023/09/16 01:57:48;;;;;;;3.30;3.00;;;;;;;;;;10381948;22;20009;-70
2023/09/16 02:01:48;;;;;;;4.32;2.90;;;;;;;;;;10385313;22;20022;-71
2023/09/16 02:05:49;;;;;;;5.10;3.10;;;;;;;;;;10388715;22;20061;-71
2023/09/16 02:09:49;;;;;;;2.88;2.67;;;;;;;;;;10387218;22;19999;-70
2023/09/16 02:13:49;;;;;;;3.92;3.03;;;;;;;;;;10383517;22;20070;-70
2023/09/16 02:17:50;;;;;;;3.00;2.70;;;;;;;;;;10381740;22;20023;-71
2023/09/16 02:21:50;;;;;;;2.63;2.42;;;;;;;;;;10385197;22;20053;-71
2023/09/16 02:25:50;;;;;;;2.67;2.47;;;;;;;;;;10384160;22;20011;-71
2023/09/16 02:29:50;;;;;;;3.17;2.53;;;;;;;;;;10380538;22;20038;-70
2023/09/16 02:33:50;;;;;;;2.75;2.55;;;;;;;;;;10378402;22;20011;-71
2023/09/16 02:37:51;;;;;;;3.17;2.87;;;;;;;;;;10382562;22;20003;-71
2023/09/16 02:41:51;;;;;;;5.32;2.95;;;;;;;;;;10380863;22;20002;-71
2023/09/16 02:45:54;;;;;;;6.13;2.70;;;;;;;;;;10382404;22;20025;-71
2023/09/16 02:49:55;;;;;;;3.45;3.15;;;;;;;;;;10381093;22;20436;-71
2023/09/16 02:53:55;;;;;;;3.53;2.95;;;;;;;;;;10381141;22;20407;-70
2023/09/16 02:57:56;;;;;;;3.42;3.13;;;;;;;;;;10383217;22;20006;-71
2023/09/16 03:01:56;;;;;;;3.20;2.90;;;;;;;;;;10378421;22;20023;-70
2023/09/16 03:05:56;;;;;;;3.10;2.80;;;;;;;;;;10379023;22;20034;-70
2023/09/16 03:09:56;;;;;;;3.55;3.00;;;;;;;;;;10378277;22;19999;-71
2023/09/16 03:13:56;;;;;;;3.35;3.00;;;;;;;;;;10380927;22;20712;-70
2023/09/16 03:17:57;;;;;;;3.95;3.10;;;;;;;;;;10380616;22;20016;-70
2023/09/16 03:21:57;;;;;;;3.10;2.58;;;;;;;;;;10378724;22;20003;-71
2023/09/16 03:25:57;;;;;;;3.55;3.25;;;;;;;;;;10385124;22;20003;-70
2023/09/16 03:29:57;;;;;;;3.50;3.05;;;;;;;;;;10378431;22;19999;-71
2023/09/16 03:33:57;;;;;;;4.85;3.53;;;;;;;;;;10378849;22;20019;-71
2023/09/16 03:37:58;;;;;;;4.53;3.20;;;;;;;;;;10381545;22;20465;-71
2023/09/16 03:41:58;;;;;;;3.47;3.17;;;;;;;;;;10382082;22;20003;-71
2023/09/16 03:45:59;;;;;;;5.30;3.35;;;;;;;;;;10379903;22;20715;-70
2023/09/16 03:49:59;;;;;;;3.38;3.03;;;;;;;;;;10383128;22;19999;-71
2023/09/16 03:53:59;;;;;;;5.03;3.88;;;;;;;;;;10381264;22;20007;-71
2023/09/16 03:58:02;;;;;;;4.03;3.47;;;;;;;;;;10383893;22;20005;-71
2023/09/16 04:02:03;;;;;;;3.93;3.43;;;;;;;;;;10378797;22;20008;-71
2023/09/16 04:06:04;;;;;;;3.53;3.20;;;;;;;;;;10383276;22;20009;-71
2023/09/16 04:10:05;;;;;;;3.85;3.35;;;;;;;;;;10385223;22;20066;-71
2023/09/16 04:14:05;;;;;;;5.10;3.38;;;;;;;;;;10387294;22;20015;-71
2023/09/16 04:18:05;;;;;;;3.17;2.88;;;;;;;;;;10386596;22;20030;-71
2023/09/16 04:22:05;;;;;;;4.40;3.30;;;;;;;;;;10383769;22;20098;-71
2023/09/16 04:26:06;;;;;;;3.90;3.30;;;;;;;;;;10387345;22;20007;-71
2023/09/16 04:30:06;;;;;;;5.00;3.15;;;;;;;;;;10384997;22;20585;-71
2023/09/16 04:34:06;;;;;;;3.53;2.97;;;;;;;;;;10388983;22;19999;-71
2023/09/16 04:38:07;;;;;;;3.45;3.15;;;;;;;;;;10390039;22;20011;-71
2023/09/16 04:42:07;;;;;;;3.67;3.38;;;;;;;;;;10386732;22;20018;-71
2023/09/16 04:46:07;;;;;;;4.40;3.43;;;;;;;;;;10388882;22;20027;-71
2023/09/16 04:50:07;;;;;;;4.57;3.35;;;;;;;;;;10389892;22;20053;-71
2023/09/16 04:54:08;;;;;;;3.80;3.37;;;;;;;;;;10392608;22;20030;-71
2023/09/16 04:58:09;;;;;;;3.43;3.20;;;;;;;;;;10388913;22;20296;-71
2023/09/16 05:02:09;;;;;;;3.55;3.25;;;;;;;;;;10389145;22;20234;-71
2023/09/16 05:06:10;;;;;;;3.58;3.10;;;;;;;;;;10388194;22;20765;-71
2023/09/16 05:10:12;;;;;;;2.97;2.72;;;;;;;;;;10390092;22;20040;-71
2023/09/16 05:14:12;;;;;;;2.72;2.53;;;;;;;;;;10386924;22;20002;-71
2023/09/16 05:18:13;;;;;;;3.15;2.65;;;;;;;;;;10385274;22;20008;-71
2023/09/16 05:22:13;;;;;;;3.27;3.00;;;;;;;;;;10382251;22;20115;-74
2023/09/16 05:26:14;;;;;;;3.83;3.05;;;;;;;;;;10392096;22;20623;-75
2023/09/16 05:30:15;;;;;;;2.85;2.65;;;;;;;;;;10391465;22;20014;-75
2023/09/16 05:34:15;;;;;;;4.28;3.33;;;;;;;;;;10390758;22;20313;-75
2023/09/16 05:38:16;;;;;;;5.65;3.40;;;;;;;;;;10391589;22;20087;-74
2023/09/16 05:42:16;;;;;;;3.25;2.95;;;;;;;;;;10388912;22;20002;-75
2023/09/16 05:46:16;;;;;;;3.28;2.97;;;;;;;;;;10388503;22;20019;-74
2023/09/16 05:50:17;;;;;;;3.40;2.92;;;;;;;;;;10388881;22;20408;-75
2023/09/16 05:54:18;;;;;;;3.20;2.90;;;;;;;;;;10394223;22;19999;-74
2023/09/16 05:58:18;;;;;;;3.63;3.00;;;;;;;;;;10388672;22;19999;-74
2023/09/16 06:02:18;;;;;;;3.70;3.40;;;;;;;;;;10390981;22;20011;-75
2023/09/16 06:06:19;;;;;;;3.47;3.17;;;;;;;;;;10391849;22;20014;-76
2023/09/16 06:10:19;;;;;;;3.30;3.00;;;;;;;;;;10391125;22;20244;-75
2023/09/16 06:14:20;;;;;;;4.27;3.40;;;;;;;;;;10392418;22;20005;-75
2023/09/16 06:18:20;;;;;;;4.73;3.20;;;;;;;;;;10386350;22;20014;-71
2023/09/16 06:22:21;;;;;;;3.63;3.22;;;;;;;;;;10387420;22;19999;-71
2023/09/16 06:26:21;;;;;;;4.68;3.13;;;;;;;;;;10381705;22;20110;-71
2023/09/16 06:30:21;;;;;;;3.55;3.22;;;;;;;;;;10384361;22;20003;-71
2023/09/16 06:34:21;;;;;;;3.78;3.28;;;;;;;;;;10386643;22;20425;-71
2023/09/16 06:38:22;;;;;;;4.30;3.53;;;;;;;;;;10388509;22;20341;-71
2023/09/16 06:42:22;;;;;;;3.77;3.47;;;;;;;;;;10383726;22;20014;-71
2023/09/16 06:46:22;;;;;;;4.18;3.60;;;;;;;;;;10386477;22;20084;-71
2023/09/16 06:50:22;;;;;;;3.60;2.97;;;;;;;;;;10386956;22;19999;-72
2023/09/16 06:54:23;;;;;;;4.35;3.75;;;;;;;;;;10387511;22;20064;-71
2023/09/16 06:58:23;;;;;;;3.58;3.28;;;;;;;;;;10384177;22;19999;-72
2023/09/16 07:02:23;;;;;;;3.25;2.92;;;;;;;;;;10386249;22;20114;-71
2023/09/16 07:06:24;;;;;;;3.33;3.03;;;;;;;;;;10383333;22;20007;-71
2023/09/16 07:10:24;;;;;;;3.30;3.10;;;;;;;;;;10389256;22;20008;-77
2023/09/16 07:14:24;;;;;;;3.72;3.33;;;;;;;;;;10364339;22;20034;-77
2023/09/16 07:18:24;;;;;;;3.53;3.00;;;;;;;;;;10390524;22;20015;-76
2023/09/16 07:22:25;;;;;;;4.97;3.30;;;;;;;;;;10390999;22;20015;-77
2023/09/16 07:26:25;;;;;;;3.40;3.10;;;;;;;;;;10389737;22;20007;-77
2023/09/16 07:30:25;;;;;;;4.20;3.80;;;;;;;;;;10392231;22;20106;-76
2023/09/16 07:34:26;;;;;;;4.45;3.58;;;;;;;;;;10392628;22;20741;-76
2023/09/16 07:38:26;;;;;;;4.00;3.70;;;;;;;;;;10394477;22;20072;-76
2023/09/16 07:42:26;;;;;;;5.47;3.88;;;;;;;;;;10394839;22;20007;-76
2023/09/16 07:46:26;;;;;;;4.45;3.78;;;;;;;;;;10399670;22;20019;-77
2023/09/16 07:50:26;;;;;;;4.57;4.13;;;;;;;;;;10402860;22;20033;-76
2023/09/16 07:54:28;;;;;;;4.88;3.88;;;;;;;;;;10405333;22;20011;-77
2023/09/16 07:58:28;;;;;;;4.13;3.83;;;;;;;;;;10404228;22;20238;-76
2023/09/16 08:02:30;;;;;;;4.20;3.85;;;;;;;;;;10405976;22;20010;-77
2023/09/16 08:06:30;;;;;;;4.38;3.97;;;;;;;;;;10405500;22;20007;-77
2023/09/16 08:10:30;;;;;;;5.55;3.97;;;;;;;;;;10406814;22;20601;-77
2023/09/16 08:14:31;;;;;;;4.55;4.13;;;;;;;;;;10405667;22;20435;-76
2023/09/16 08:18:31;;;;;;;3.88;3.58;;;;;;;;;;10401201;22;20065;-77
2023/09/16 08:22:31;;;;;;;5.32;4.18;;;;;;;;;;10400773;22;20007;-76
2023/09/16 08:26:31;;;;;;;7.88;4.18;;;;;;;;;;10399842;22;20275;-76
2023/09/16 08:30:33;;;;;;;4.77;3.90;;;;;;;;;;10412954;22;20015;-77
2023/09/16 08:34:33;;;;;;;4.50;4.00;;;;;;;;;;10425641;22;20010;-76
2023/09/16 08:38:33;;;;;;;6.28;4.00;;;;;;;;;;10428805;22;20007;-76
2023/09/16 08:42:36;;;;;;;4.47;3.95;;;;;;;;;;10434466;22;19979;-76
2023/09/16 08:46:41;;;;;;;5.25;3.90;;;;;;;;;;10442184;22;20007;-76
2023/09/16 08:50:43;;;;;;;4.35;4.00;;;;;;;;;;10440622;22;20187;-77
2023/09/16 08:54:45;;;;;;;3.70;3.35;;;;;;;;;;10443601;22;20022;-76
2023/09/16 08:58:45;;;;;;;;;;;;;;;;;;10442277;22;20240;-76
2023/09/16 09:02:46;;;;;;;6.30;3.55;;;;;;;;;;10442205;22;19956;-75
2023/09/16 09:06:47;;;;;;;4.22;3.72;;;;;;;;;;10444074;22;20120;-75
2023/09/16 09:10:49;;;;;;;4.90;3.67;;;;;;;;;;10455592;22;20003;-79
2023/09/16 09:14:51;;;;;;;5.13;3.97;;;;;;;;;;10470927;22;20055;-76
2023/09/16 09:18:53;;;;;;;5.27;3.73;;;;;;;;;;10472525;22;19999;-77
2023/09/16 09:22:55;;;;;;;4.35;3.40;;;;;;;;;;10470126;22;20025;-77
2023/09/16 09:26:55;;;;;;;4.30;3.90;;;;;;;;;;10469977;22;20011;-77
2023/09/16 09:31:03;;;;;;;4.23;3.77;;;;;;;;;;10468450;22;20021;-77
2023/09/16 09:35:06;;;;;;;4.90;4.13;;;;;;;;;;10471888;22;20241;-76
2023/09/16 09:39:08;;;;;;;5.70;3.60;;;;;;;;;;10473069;22;19991;-77
2023/09/16 09:43:09;;;;;;;5.18;3.67;;;;;;;;;;10470508;22;20007;-76
2023/09/16 09:47:12;;;;;;;5.63;4.13;;;;;;;;;;10468288;22;20393;-77
2023/09/16 09:51:19;;;;;;;4.57;3.50;;;;;;;;;;10444493;22;20015;-77
2023/09/16 09:55:20;;;;;;;8.18;3.83;;;;;;;;;;10455196;22;20010;-76
2023/09/16 09:59:23;;;;;;;7.40;4.43;;;;;;;;;;10451268;22;20006;-78
2023/09/16 10:03:24;;;;;;;5.25;4.43;;;;;;;;;;10452236;22;20009;-78
2023/09/16 10:07:33;;;;;;;4.13;3.77;;;;;;;;;;10449714;22;20019;-77
2023/09/16 10:11:35;;;;;;;4.35;3.90;;;;;;;;;;10453228;22;20009;-77
2023/09/16 10:15:36;;;;;;;5.47;4.00;;;;;;;;;;10430513;22;20003;-75
2023/09/16 10:19:37;;;;;;;4.78;3.17;;;;;;;;;;10410653;22;20894;-77
2023/09/16 10:23:37;;;;;;;7.95;3.25;;;;;;;;;;10406479;22;20030;-76
2023/09/16 10:27:58;;;;;;;4.07;3.42;;;;;;;;;;10409865;22;20003;-76
2023/09/16 10:31:59;;;;;;;5.60;4.55;;;;;;;;;;10405087;22;20011;-76
2023/09/16 10:36:00;;;;;;;8.50;4.03;;;;;;;;;;10403415;22;20742;-76
2023/09/16 10:40:02;;;;;;;3.75;3.45;;;;;;;;;;10405112;22;20371;-76
2023/09/16 10:44:03;;;;;;;4.00;3.63;;;;;;;;;;10403576;22;20003;-75
2023/09/16 10:48:04;;;;;;;4.95;3.70;;;;;;;;;;10403800;22;20050;-75
2023/09/16 10:52:08;;;;;;;5.47;3.80;;;;;;;;;;10401657;22;19999;-76
2023/09/16 10:56:13;;;;;;;6.43;3.65;;;;;;;;;;10404817;22;20011;-76
2023/09/16 11:00:17;;;;;;;4.60;3.72;;;;;;;;;;10397725;22;20031;-75
2023/09/16 11:04:18;;;;;;;6.10;3.80;;;;;;;;;;10398055;22;20018;-76
2023/09/16 11:08:18;;;;;;;4.40;3.50;;;;;;;;;;10399365;22;20014;-76
2023/09/16 11:12:19;;;;;;;4.40;3.10;;;;;;;;;;10404455;22;20007;-76
2023/09/16 11:16:20;;;;;;;4.20;3.63;;;;;;;;;;10402434;22;20035;-75
2023/09/16 11:20:21;;;;;;;5.22;3.20;;;;;;;;;;10400777;22;20225;-75
2023/09/16 11:24:21;;;;;;;3.92;3.60;;;;;;;;;;10401267;22;20073;-76
2023/09/16 11:28:22;;;;;;;5.73;3.73;;;;;;;;;;10395960;22;20546;-75
2023/09/16 11:32:22;;;;;;;3.80;3.10;;;;;;;;;;10400387;22;20476;-75
2023/09/16 11:36:22;;;;;;;5.68;3.55;;;;;;;;;;10402855;22;20013;-75
2023/09/16 11:40:31;;;;;;;3.08;2.88;;;;;;;;;;10396457;22;20110;-76
2023/09/16 11:44:31;;;;;;;7.03;3.22;;;;;;;;;;10399356;22;20006;-75
2023/09/16 11:48:54;;;;;;;3.37;2.90;;;;;;;;;;10397538;22;20026;-76
2023/09/16 11:52:54;;;;;;;3.13;2.92;;;;;;;;;;10397280;22;20240;-76
2023/09/16 11:56:54;;;;;;;3.08;2.72;;;;;;;;;;10396797;22;20022;-76
2023/09/16 12:00:54;;;;;;;2.83;2.60;;;;;;;;;;10396903;22;20329;-76
2023/09/16 12:04:55;;;;;;;5.13;2.95;;;;;;;;;;10401001;22;20638;-76
2023/09/16 12:08:56;;;;;;;3.53;2.90;;;;;;;;;;10398453;22;20011;-76
2023/09/16 12:12:56;;;;;;;7.43;3.05;;;;;;;;;;10395801;22;19991;-76
2023/09/16 12:16:57;;;;;;;3.50;3.20;;;;;;;;;;10394262;22;20022;-77
2023/09/16 12:20:57;;;;;;;6.55;2.83;;;;;;;;;;10395330;22;20003;-76
2023/09/16 12:24:57;;;;;;;3.78;2.90;;;;;;;;;;10394808;22;20023;-77
2023/09/16 12:28:58;;;;;;;4.82;2.78;;;;;;;;;;10398213;22;20464;-76
2023/09/16 12:32:58;;;;;;;3.50;2.80;;;;;;;;;;10395955;22;20015;-76
2023/09/16 12:36:58;;;;;;;3.85;3.20;;;;;;;;;;10397583;22;20308;-77
2023/09/16 12:40:59;;;;;;;5.00;2.90;;;;;;;;;;10393303;22;20018;-76
2023/09/16 12:44:59;;;;;;;3.33;3.00;;;;;;;;;;10393953;22;20014;-76
2023/09/16 12:49:00;;;;;;;3.22;2.90;;;;;;;;;;10394769;22;20643;-76
2023/09/16 12:53:00;;;;;;;4.00;2.80;;;;;;;;;;10393031;22;20010;-78
2023/09/16 12:57:04;;;;;;;4.37;2.60;;;;;;;;;;10396261;22;20138;-76
2023/09/16 13:01:04;;;;;;;3.78;2.90;;;;;;;;;;10396383;22;20049;-76
2023/09/16 13:05:16;;;;;;;3.40;3.10;;;;;;;;;;10394687;22;20003;-76
2023/09/16 13:09:17;;;;;;;3.90;3.10;;;;;;;;;;10393016;22;20760;-76
2023/09/16 13:13:17;;;;;;;5.37;3.23;;;;;;;;;;10399099;22;20244;-76
2023/09/16 13:17:17;;;;;;;4.18;2.92;;;;;;;;;;10394579;22;20233;-77
2023/09/16 13:21:17;;;;;;;3.95;2.75;;;;;;;;;;10393719;22;20569;-78
2023/09/16 13:25:32;;;;;;;3.23;2.83;;;;;;;;;;10380682;22;20041;-76
2023/09/16 13:29:33;;;;;;;6.30;3.45;;;;;;;;;;10396645;22;20443;-76
2023/09/16 13:33:42;;;;;;;5.65;3.03;;;;;;;;;;10391318;22;20007;-77
2023/09/16 13:37:42;;;;;;;4.90;2.95;;;;;;;;;;10396209;22;20506;-76
2023/09/16 13:41:42;;;;;;;6.32;2.90;;;;;;;;;;10396641;22;20097;-76
2023/09/16 13:45:42;;;;;;;9.82;3.00;;;;;;;;;;10395977;22;20019;-76
2023/09/16 13:49:42;;;;;;;4.05;3.35;;;;;;;;;;10390429;22;20096;-76
2023/09/16 13:53:43;;;;;;;9.77;5.13;;;;;;;;;;10391561;22;20484;-76
2023/09/16 13:57:43;;;;;;;5.78;3.53;;;;;;;;;;10391480;22;20687;-76
2023/09/16 14:01:44;;;;;;;4.87;3.13;;;;;;;;;;10387848;22;20015;-76
2023/09/16 14:05:46;;;;;;;3.95;3.33;;;;;;;;;;10396151;22;20003;-76
2023/09/16 14:09:51;;;;;;;5.30;3.95;;;;;;;;;;10392901;22;20003;-76
2023/09/16 14:13:51;;;;;;;3.92;3.10;;;;;;;;;;10393649;22;20028;-77
2023/09/16 14:17:54;;;;;;;4.75;4.03;;;;;;;;;;10393817;22;20011;-77
2023/09/16 14:21:56;;;;;;;7.80;6.05;;;;;;;;;;10398409;22;20068;-76
2023/09/16 14:25:59;;;;;;;4.90;4.10;;;;;;;;;;10395900;22;20800;-77
2023/09/16 14:30:00;;;;;;;3.88;3.00;;;;;;;;;;10392117;22;19997;-77
2023/09/16 14:34:00;;;;;;;3.00;2.80;;;;;;;;;;10397066;22;20023;-77
2023/09/16 14:38:03;;;;;;;6.13;3.08;;;;;;;;;;10395161;22;20007;-76
2023/09/16 14:42:03;;;;;;;3.20;2.90;;;;;;;;;;10393948;22;20007;-76
2023/09/16 14:46:04;;;;;;;5.70;2.88;;;;;;;;;;10391079;22;20066;-77
2023/09/16 14:50:04;;;;;;;4.23;3.37;;;;;;;;;;10373966;22;20017;-76
2023/09/16 14:54:05;;;;;;;4.93;3.30;;;;;;;;;;10393374;22;20238;-76
2023/09/16 14:58:07;;;;;;;4.25;3.05;;;;;;;;;;10391138;22;20029;-75
2023/09/16 15:02:07;;;;;;;5.88;3.30;;;;;;;;;;10386815;22;20092;-76
2023/09/16 15:06:09;;;;;;;4.23;3.17;;;;;;;;;;10389188;22;20685;-75
2023/09/16 15:10:10;;;;;;;5.57;3.20;;;;;;;;;;10386624;22;20007;-77
2023/09/16 15:14:10;;;;;;;4.13;3.22;;;;;;;;;;10386744;22;20034;-76
2023/09/16 15:18:11;;;;;;;5.18;3.33;;;;;;;;;;10386702;22;20015;-76
2023/09/16 15:22:11;;;;;;;5.25;2.95;;;;;;;;;;10383752;22;20034;-75
2023/09/16 15:26:12;;;;;;;8.80;3.22;;;;;;;;;;10384632;22;20014;-77
2023/09/16 15:30:13;;;;;;;3.72;3.13;;;;;;;;;;10381167;22;20362;-76
2023/09/16 15:34:13;;;;;;;3.60;3.17;;;;;;;;;;10382250;22;20125;-77
2023/09/16 15:38:14;;;;;;;3.30;3.00;;;;;;;;;;10387652;22;20007;-76
2023/09/16 15:42:14;;;;;;;5.03;3.42;;;;;;;;;;10384316;22;20512;-76
2023/09/16 15:46:14;;;;;;;3.25;2.90;;;;;;;;;;10382558;22;20011;-76
2023/09/16 15:50:14;;;;;;;5.63;3.22;;;;;;;;;;10382226;22;19996;-76
2023/09/16 15:54:14;;;;;;;4.47;3.30;;;;;;;;;;10384627;22;19995;-76
2023/09/16 15:58:16;;;;;;;3.97;3.20;;;;;;;;;;10383522;22;20007;-76
2023/09/16 16:02:16;;;;;;;7.78;2.88;;;;;;;;;;10382775;22;20138;-76
2023/09/16 16:06:16;;;;;;;3.15;2.90;;;;;;;;;;10384234;22;20106;-76
2023/09/16 16:10:18;;;;;;;3.10;2.80;;;;;;;;;;10385961;22;20456;-76
2023/09/16 16:14:18;;;;;;;2.72;2.53;;;;;;;;;;10384308;22;20196;-74
2023/09/16 16:18:21;;;;;;;4.90;2.90;;;;;;;;;;10373176;22;20238;-76
2023/09/16 16:22:21;;;;;;;3.35;2.83;;;;;;;;;;10386357;22;20003;-76
2023/09/16 16:26:21;;;;;;;5.07;3.10;;;;;;;;;;10383190;22;20010;-76
2023/09/16 16:30:22;;;;;;;4.88;3.40;;;;;;;;;;10383846;22;20008;-76
2023/09/16 16:34:22;;;;;;;5.15;2.83;;;;;;;;;;10383271;22;20002;-76
2023/09/16 16:38:22;;;;;;;4.63;3.50;;;;;;;;;;10383158;22;19999;-76
2023/09/16 16:42:23;;;;;;;5.10;3.50;;;;;;;;;;10380229;22;20006;-76
2023/09/16 16:46:23;;;;;;;3.28;2.97;;;;;;;;;;10381106;22;20019;-76
2023/09/16 16:50:23;;;;;;;3.53;3.03;;;;;;;;;;10372897;22;19992;-75
2023/09/16 16:54:24;;;;;;;3.58;2.95;;;;;;;;;;10376581;22;20218;-76
2023/09/16 16:58:25;;;;;;;2.95;2.70;;;;;;;;;;10375722;22;20337;-76
2023/09/16 17:02:25;;;;;;;3.92;3.45;;;;;;;;;;10376289;22;20356;-75
2023/09/16 17:06:26;;;;;;;5.32;3.08;;;;;;;;;;10377607;22;20093;-75
2023/09/16 17:10:26;;;;;;;2.92;2.63;;;;;;;;;;10376761;22;20053;-75
2023/09/16 17:14:27;;;;;;;3.70;2.92;;;;;;;;;;10376740;22;20030;-77
2023/09/16 17:18:27;;;;;;;3.15;2.85;;;;;;;;;;10372741;22;20098;-75
2023/09/16 17:22:28;;;;;;;3.25;2.95;;;;;;;;;;10374407;22;20003;-76
2023/09/16 17:26:28;;;;;;;3.40;3.10;;;;;;;;;;10375668;22;20106;-74
2023/09/16 17:30:28;;;;;;;5.45;2.80;;;;;;;;;;10375340;22;20033;-75
2023/09/16 17:34:29;;;;;;;3.25;2.92;;;;;;;;;;10376631;22;20099;-75
2023/09/16 17:38:30;;;;;;;3.63;2.80;;;;;;;;;;10375225;22;20133;-75
2023/09/16 17:42:30;;;;;;;6.10;3.10;;;;;;;;;;10374807;22;20386;-75
2023/09/16 17:46:31;;;;;;;4.20;3.10;;;;;;;;;;10372189;22;20054;-76
2023/09/16 17:50:31;;;;;;;3.25;2.90;;;;;;;;;;10374587;22;20276;-75
2023/09/16 17:54:31;;;;;;;4.25;2.67;;;;;;;;;;10372151;22;20003;-75
2023/09/16 17:58:35;;;;;;;3.85;3.20;;;;;;;;;;10373311;22;20098;-77
2023/09/16 18:02:37;;;;;;;4.10;2.85;;;;;;;;;;10370857;22;20454;-76
2023/09/16 18:06:37;;;;;;;4.10;3.03;;;;;;;;;;10375613;22;20007;-76
2023/09/16 18:10:39;;;;;;;3.85;2.88;;;;;;;;;;10373112;22;19992;-76
2023/09/16 18:14:39;;;;;;;7.00;3.28;;;;;;;;;;10371984;22;20007;-75
2023/09/16 18:18:40;;;;;;;8.03;3.53;;;;;;;;;;10371193;22;20078;-76
2023/09/16 18:22:40;;;;;;;6.50;3.40;;;;;;;;;;10369083;22;20003;-77
2023/09/16 18:26:40;;;;;;;5.45;3.25;;;;;;;;;;10373105;22;20000;-76
2023/09/16 18:30:41;;;;;;;6.03;3.25;;;;;;;;;;10371318;22;20114;-77
2023/09/16 18:34:42;;;;;;;5.38;3.33;;;;;;;;;;10371039;22;20821;-72
2023/09/16 18:38:42;;;;;;;4.85;3.40;;;;;;;;;;10368550;22;20006;-71
2023/09/16 18:42:43;;;;;;;6.50;3.28;;;;;;;;;;10369229;22;19999;-71
2023/09/16 18:46:45;;;;;;;9.30;3.50;;;;;;;;;;10367788;22;20685;-70
2023/09/16 18:50:45;;;;;;;5.50;4.30;;;;;;;;;;10370131;22;20058;-72
2023/09/16 18:54:45;;;;;;;4.18;3.65;;;;;;;;;;10364036;22;20771;-72
2023/09/16 18:58:45;;;;;;;5.55;3.53;;;;;;;;;;10367838;22;20029;-73
2023/09/16 19:02:46;;;;;;;4.85;3.45;;;;;;;;;;10366642;22;20098;-72
2023/09/16 19:06:47;;;;;;;5.00;4.07;;;;;;;;;;10371346;22;20034;-72
2023/09/16 19:10:49;;;;;;;3.95;3.65;;;;;;;;;;10367751;22;20053;-72
2023/09/16 19:14:49;;;;;;;9.82;3.80;;;;;;;;;;10369045;22;19999;-73
2023/09/16 19:18:49;;;;;;;4.13;3.72;;;;;;;;;;10368379;22;20073;-73
2023/09/16 19:22:49;;;;;;;4.75;3.30;;;;;;;;;;10372494;22;20011;-73
2023/09/16 19:26:49;;;;;;;4.65;3.50;;;;;;;;;;10372376;22;20003;-72
2023/09/16 19:30:50;;;;;;;4.97;3.53;;;;;;;;;;10371091;22;20073;-73
2023/09/16 19:34:51;;;;;;;4.83;2.97;;;;;;;;;;10371825;22;20653;-72
2023/09/16 19:38:51;;;;;;;4.13;3.13;;;;;;;;;;10369316;22;20034;-73
2023/09/16 19:42:53;;;;;;;5.25;3.78;;;;;;;;;;10372949;22;19999;-73
2023/09/16 19:46:53;;;;;;;3.72;3.42;;;;;;;;;;10369285;22;20011;-71
2023/09/16 19:50:53;;;;;;;4.72;3.13;;;;;;;;;;10371126;22;20545;-72
2023/09/16 19:54:53;;;;;;;5.57;3.10;;;;;;;;;;10370463;22;20098;-73
2023/09/16 19:58:53;;;;;;;4.20;3.20;;;;;;;;;;10370595;22;19999;-72
2023/09/16 20:02:54;;;;;;;3.42;3.20;;;;;;;;;;10372169;22;20023;-73
2023/09/16 20:06:55;;;;;;;3.40;3.10;;;;;;;;;;10370721;22;20101;-73
2023/09/16 20:10:56;;;;;;;5.72;2.70;;;;;;;;;;10371259;22;19992;-73
2023/09/16 20:14:56;;;;;;;3.65;2.80;;;;;;;;;;10373353;22;20600;-73
2023/09/16 20:18:56;;;;;;;2.90;2.70;;;;;;;;;;10373872;22;20026;-73
2023/09/16 20:22:57;;;;;;;3.50;3.20;;;;;;;;;;10373656;22;20443;-73
2023/09/16 20:26:58;;;;;;;4.53;3.30;;;;;;;;;;10370512;22;19999;-74
2023/09/16 20:30:58;;;;;;;5.80;3.50;;;;;;;;;;10375626;22;20045;-74
2023/09/16 20:34:58;;;;;;;3.67;3.35;;;;;;;;;;10372889;22;20421;-73
2023/09/16 20:38:58;;;;;;;6.57;3.63;;;;;;;;;;10369737;22;20069;-73
2023/09/16 20:42:58;;;;;;;4.15;3.33;;;;;;;;;;10371016;22;20003;-72
2023/09/16 20:46:59;;;;;;;4.13;3.50;;;;;;;;;;10372196;22;20019;-73
2023/09/16 20:50:59;;;;;;;7.03;3.40;;;;;;;;;;10369663;22;20042;-74
2023/09/16 20:54:59;;;;;;;4.65;3.45;;;;;;;;;;10373212;22;20431;-73
2023/09/16 20:58:59;;;;;;;6.00;3.67;;;;;;;;;;10373357;22;20003;-73
2023/09/16 21:02:59;;;;;;;4.67;3.50;;;;;;;;;;10372467;22;20600;-73
2023/09/16 21:07:00;;;;;;;4.38;3.28;;;;;;;;;;10373702;22;20067;-72
2023/09/16 21:11:00;;;;;;;5.00;3.80;;;;;;;;;;10373401;22;20019;-74
2023/09/16 21:15:00;;;;;;;4.68;3.92;;;;;;;;;;10377303;22;20090;-73
2023/09/16 21:19:01;;;;;;;6.50;3.63;;;;;;;;;;10374443;22;20197;-72
2023/09/16 21:23:01;;;;;;;4.20;3.40;;;;;;;;;;10366260;22;20315;-73
2023/09/16 21:27:01;;;;;;;4.80;3.30;;;;;;;;;;10352793;22;20271;-74
2023/09/16 21:31:04;;;;;;;6.00;3.60;;;;;;;;;;10371248;22;20099;-74
2023/09/16 21:35:05;;;;;;;4.18;3.78;;;;;;;;;;10372218;22;19995;-74
2023/09/16 21:39:05;;;;;;;4.20;3.55;;;;;;;;;;10371512;22;20328;-73
2023/09/16 21:43:05;;;;;;;3.45;3.15;;;;;;;;;;10375518;22;20701;-74
2023/09/16 21:47:06;;;;;;;5.13;3.77;;;;;;;;;;10374463;22;20015;-73
2023/09/16 21:51:07;;;;;;;3.83;3.53;;;;;;;;;;10372113;22;19999;-74
2023/09/16 21:55:07;;;;;;;4.05;3.60;;;;;;;;;;10373402;22;20026;-74
2023/09/16 21:59:08;;;;;;;3.73;3.43;;;;;;;;;;10371098;22;20013;-73
2023/09/16 22:03:08;;;;;;;3.90;3.55;;;;;;;;;;10368238;22;20241;-74
2023/09/16 22:07:09;;;;;;;4.28;3.53;;;;;;;;;;10369584;22;20174;-73
2023/09/16 22:11:09;;;;;;;4.25;3.65;;;;;;;;;;10368446;22;20820;-74
2023/09/16 22:15:12;;;;;;;5.97;4.50;;;;;;;;;;10368932;22;20290;-74
2023/09/16 22:19:12;;;;;;;4.60;4.20;;;;;;;;;;10372124;22;20855;-74
2023/09/16 22:23:13;;;;;;;4.53;4.20;;;;;;;;;;10372878;22;20082;-74
2023/09/16 22:27:13;;;;;;;4.65;4.25;;;;;;;;;;10370536;22;20053;-73
2023/09/16 22:31:15;;;;;;;4.53;3.70;;;;;;;;;;10371309;22;20714;-74
2023/09/16 22:35:16;;;;;;;4.43;4.05;;;;;;;;;;10370672;22;19996;-74
2023/09/16 22:39:17;;;;;;;3.53;3.22;;;;;;;;;;10370971;22;19999;-74
2023/09/16 22:43:17;;;;;;;4.45;3.80;;;;;;;;;;10366407;22;20017;-74
2023/09/16 22:47:17;;;;;;;4.80;3.30;;;;;;;;;;10365979;22;20015;-74
2023/09/16 22:51:17;;;;;;;4.15;3.75;;;;;;;;;;10371729;22;19996;-74
2023/09/16 22:55:18;;;;;;;3.42;3.15;;;;;;;;;;10369666;22;20753;-74
2023/09/16 22:59:18;;;;;;;3.53;3.28;;;;;;;;;;10372104;22;20017;-74
2023/09/16 23:03:18;;;;;;;3.03;2.80;;;;;;;;;;10376381;22;20026;-74
2023/09/16 23:07:19;;;;;;;2.97;2.78;;;;;;;;;;10373379;22;20044;-74
2023/09/16 23:11:19;;;;;;;3.97;2.90;;;;;;;;;;10366732;22;20018;-74
2023/09/16 23:15:19;;;;;;;3.60;3.17;;;;;;;;;;10366875;22;20003;-74
2023/09/16 23:19:20;;;;;;;3.65;3.08;;;;;;;;;;10371882;22;20723;-73
2023/09/16 23:23:20;;;;;;;2.97;2.78;;;;;;;;;;10367576;22;20030;-73
2023/09/16 23:27:20;;;;;;;3.40;3.08;;;;;;;;;;10374868;22;20003;-73
2023/09/16 23:31:20;;;;;;;3.25;3.05;;;;;;;;;;10380124;22;20020;-74
2023/09/16 23:35:22;;;;;;;3.97;3.58;;;;;;;;;;10388766;22;20007;-74
2023/09/16 23:39:22;;;;;;;3.10;2.80;;;;;;;;;;10386189;22;20074;-73
2023/09/16 23:43:22;;;;;;;4.60;4.20;;;;;;;;;;10386457;22;20014;-72